createdAt,value
2018-11-12T00:00:25.779Z,97072.44
2018-11-12T00:02:57.302Z,97067.75
2018-11-12T00:05:26.637Z,97063.89
2018-11-12T00:07:56.499Z,97066.41
2018-11-12T00:10:25.968Z,97061.38
2018-11-12T00:12:55.370Z,97055.48
2018-11-12T00:15:25.251Z,97057.79
2018-11-12T00:17:54.747Z,97048.59
2018-11-12T00:20:24.371Z,97054.13
2018-11-12T00:22:53.804Z,97067.59
2018-11-12T00:25:23.241Z,97068.48
2018-11-12T00:27:53.024Z,97065.61
2018-11-12T00:30:22.293Z,97072.78
2018-11-12T00:32:51.835Z,97070.19
2018-11-12T00:35:21.324Z,97069.64
2018-11-12T00:37:50.928Z,97073.30
2018-11-12T00:40:20.675Z,97075.14
2018-11-12T00:42:49.943Z,97074.95
2018-11-12T00:45:19.275Z,97081.87
2018-11-12T00:47:48.657Z,97089.93
2018-11-12T00:50:18.321Z,97088.03
2018-11-12T00:52:47.722Z,97091.26
2018-11-12T00:55:17.328Z,97089.53
2018-11-12T00:57:46.877Z,97093.57
2018-11-12T01:00:18.545Z,97095.53
2018-11-12T01:02:48.928Z,97097.17
2018-11-12T01:05:19.148Z,97100.04
2018-11-12T01:07:49.056Z,97100.39
2018-11-12T01:10:19.925Z,97090.20
2018-11-12T01:12:49.102Z,97084.69
2018-11-12T01:15:19.648Z,97085.09
2018-11-12T01:17:48.891Z,97079.70
2018-11-12T01:20:18.649Z,97071.60
2018-11-12T01:22:47.926Z,97079.50
2018-11-12T01:25:17.144Z,97087.47
2018-11-12T01:27:46.532Z,97079.50
2018-11-12T01:30:17.942Z,97079.50
2018-11-12T01:32:47.301Z,97089.68
2018-11-12T01:35:17.420Z,97089.77
2018-11-12T01:37:46.668Z,97091.94
2018-11-12T01:40:16.525Z,97091.46
2018-11-12T01:42:46.040Z,97093.62
2018-11-12T01:45:17.333Z,97095.80
2018-11-12T01:47:47.717Z,97101.73
2018-11-12T01:50:17.489Z,97102.64
2018-11-12T01:52:47.429Z,97103.08
2018-11-12T01:55:17.708Z,97094.19
2018-11-12T01:57:47.072Z,97094.45
2018-11-12T02:00:18.142Z,97095.70
2018-11-12T02:02:48.475Z,97097.41
2018-11-12T02:05:18.224Z,97093.19
2018-11-12T02:07:47.387Z,97089.86
2018-11-12T02:10:17.705Z,97088.16
2018-11-12T02:12:47.033Z,97085.56
2018-11-12T02:15:18.428Z,97092.28
2018-11-12T02:17:48.234Z,97092.20
2018-11-12T02:20:18.659Z,97086.17
2018-11-12T02:22:48.945Z,97089.13
2018-11-12T02:25:18.031Z,97086.09
2018-11-12T02:27:48.412Z,97076.34
2018-11-12T02:30:23.594Z,97079.20
2018-11-12T02:32:54.583Z,97070.05
2018-11-12T02:35:23.747Z,97072.56
2018-11-12T02:37:52.914Z,97067.66
2018-11-12T02:40:22.152Z,97061.02
2018-11-12T02:42:51.374Z,97069.44
2018-11-12T02:45:20.534Z,97067.95
2018-11-12T02:47:49.741Z,97069.64
2018-11-12T02:50:19.040Z,97068.03
2018-11-12T02:52:48.201Z,97061.39
2018-11-12T02:55:17.475Z,97054.41
2018-11-12T02:57:47.545Z,97051.06
2018-11-12T03:00:19.123Z,97055.83
2018-11-12T03:02:48.359Z,97059.30
2018-11-12T03:05:17.622Z,97065.39
2018-11-12T03:07:46.928Z,97059.66
2018-11-12T03:10:19.630Z,97068.27
2018-11-12T03:12:48.885Z,97073.38
2018-11-12T03:15:18.830Z,97079.36
2018-11-12T03:17:48.647Z,97079.28
2018-11-12T03:20:18.999Z,97079.24
2018-11-12T03:22:48.286Z,97078.42
2018-11-12T03:25:18.796Z,97086.44
2018-11-12T03:27:48.578Z,97091.08
2018-11-12T03:30:18.950Z,97099.58
2018-11-12T03:32:48.839Z,97086.98
2018-11-12T03:35:18.021Z,97092.73
2018-11-12T03:37:48.179Z,97092.73
2018-11-12T03:40:19.387Z,97094.45
2018-11-12T03:42:49.098Z,97086.91
2018-11-12T03:45:21.464Z,97092.27
2018-11-12T03:47:50.607Z,97094.23
2018-11-12T03:50:20.898Z,97094.45
2018-11-12T03:52:50.135Z,97086.08
2018-11-12T03:55:20.558Z,97089.42
2018-11-12T03:57:49.784Z,97091.94
2018-11-12T04:00:21.386Z,97097.06
2018-11-12T04:02:50.533Z,97099.02
2018-11-12T04:05:19.704Z,97099.17
2018-11-12T04:07:48.867Z,97097.98
2018-11-12T04:10:18.947Z,97102.94
2018-11-12T04:12:48.100Z,97105.45
2018-11-12T04:15:20.579Z,97103.84
2018-11-12T04:17:49.767Z,97108.25
2018-11-12T04:20:20.153Z,97105.73
2018-11-12T04:22:54.509Z,97113.64
2018-11-12T04:25:23.709Z,97110.77
2018-11-12T04:27:52.915Z,97117.15
2018-11-12T04:30:22.091Z,97123.52
2018-11-12T04:32:51.312Z,97121.83
2018-11-12T04:35:20.466Z,97119.27
2018-11-12T04:37:49.689Z,97114.28
2018-11-12T04:40:19.498Z,97122.66
2018-11-12T04:42:49.168Z,97126.66
2018-11-12T04:45:19.742Z,97119.49
2018-11-12T04:47:49.756Z,97124.05
2018-11-12T04:50:20.595Z,97117.33
2018-11-12T04:52:50.661Z,97108.21
2018-11-12T04:55:20.974Z,97110.77
2018-11-12T04:57:50.107Z,97108.91
2018-11-12T05:00:24.465Z,97106.92
2018-11-12T05:02:53.673Z,97105.11
2018-11-12T05:05:24.191Z,97105.77
2018-11-12T05:07:53.483Z,97107.38
2018-11-12T05:10:23.929Z,97113.63
2018-11-12T05:12:53.687Z,97109.08
2018-11-12T05:15:23.806Z,97109.23
2018-11-12T05:17:53.013Z,97113.41
2018-11-12T05:20:29.825Z,97106.33
2018-11-12T05:22:59.148Z,97107.16
2018-11-12T05:25:28.425Z,97105.98
2018-11-12T05:27:57.622Z,97102.55
2018-11-12T05:30:27.972Z,97104.25
2018-11-12T05:32:57.646Z,97107.47
2018-11-12T05:35:27.921Z,97101.09
2018-11-12T05:37:57.473Z,97097.23
2018-11-12T05:40:27.788Z,97097.97
2018-11-12T05:42:57.115Z,97101.79
2018-11-12T05:45:27.506Z,97097.31
2018-11-12T05:47:56.808Z,97093.98
2018-11-12T05:50:27.387Z,97099.01
2018-11-12T05:52:58.462Z,97101.17
2018-11-12T05:55:28.615Z,97097.41
2018-11-12T05:57:58.037Z,97100.95
2018-11-12T06:00:29.172Z,97100.73
2018-11-12T06:02:58.456Z,97106.47
2018-11-12T06:05:27.728Z,97105.47
2018-11-12T06:08:27.912Z,97100.44
2018-11-12T06:10:57.368Z,97103.95
2018-11-12T06:13:26.591Z,97106.20
2018-11-12T06:15:55.803Z,97113.61
2018-11-12T06:18:25.048Z,97115.47
2018-11-12T06:20:54.315Z,97126.02
2018-11-12T06:23:23.556Z,97115.52
2018-11-12T06:25:52.803Z,97113.08
2018-11-12T06:28:22.062Z,97118.07
2018-11-12T06:30:51.346Z,97119.20
2018-11-12T06:33:20.588Z,97117.87
2018-11-12T06:35:52.446Z,97124.72
2018-11-12T06:38:22.022Z,97129.91
2018-11-12T06:40:51.245Z,97133.04
2018-11-12T06:43:20.602Z,97143.94
2018-11-12T06:45:49.799Z,97142.63
2018-11-12T06:48:19.017Z,97146.14
2018-11-12T06:50:48.624Z,97149.53
2018-11-12T06:53:18.773Z,97155.98
2018-11-12T06:55:48.719Z,97159.84
2018-11-12T06:58:18.832Z,97166.05
2018-11-12T07:00:48.735Z,97166.27
2018-11-12T07:03:18.711Z,97172.64
2018-11-12T07:05:48.703Z,97170.17
2018-11-12T07:08:19.572Z,97165.02
2018-11-12T07:10:48.890Z,97166.05
2018-11-12T07:13:19.434Z,97157.72
2018-11-12T07:15:48.913Z,97155.16
2018-11-12T07:18:19.428Z,97157.06
2018-11-12T07:20:48.974Z,97167.22
2018-11-12T07:23:19.197Z,97165.17
2018-11-12T07:25:49.050Z,97169.85
2018-11-12T07:28:19.022Z,97169.97
2018-11-12T07:30:49.148Z,97163.68
2018-11-12T07:33:19.242Z,97159.78
2018-11-12T07:35:49.068Z,97151.33
2018-11-12T07:38:19.494Z,97158.97
2018-11-12T07:40:51.048Z,97157.27
2018-11-12T07:43:20.246Z,97160.81
2018-11-12T07:45:49.466Z,97157.16
2018-11-12T07:48:19.139Z,97163.15
2018-11-12T07:50:49.573Z,97173.77
2018-11-12T07:53:19.187Z,97172.13
2018-11-12T07:55:55.584Z,97172.59
2018-11-12T07:58:24.815Z,97168.59
2018-11-12T08:00:54.125Z,97158.13
2018-11-12T08:03:23.416Z,97155.06
2018-11-12T08:05:52.644Z,97153.48
2018-11-12T08:08:21.919Z,97149.70
2018-11-12T08:10:51.117Z,97147.39
2018-11-12T08:13:20.392Z,97141.52
2018-11-12T08:15:49.657Z,97140.42
2018-11-12T08:18:19.401Z,97134.13
2018-11-12T08:20:49.483Z,97135.03
2018-11-12T08:23:19.657Z,97138.41
2018-11-12T08:25:49.517Z,97140.97
2018-11-12T08:28:19.550Z,97144.00
2018-11-12T08:30:49.562Z,97141.33
2018-11-12T08:33:19.648Z,97133.30
2018-11-12T08:35:49.590Z,97137.11
2018-11-12T08:38:19.579Z,97144.31
2018-11-12T08:40:49.756Z,97140.22
2018-11-12T08:43:19.606Z,97144.47
2018-11-12T08:45:49.768Z,97145.61
2018-11-12T08:48:19.718Z,97155.92
2018-11-12T08:50:50.498Z,97153.40
2018-11-12T08:53:19.742Z,97157.25
2018-11-12T08:55:49.770Z,97154.30
2018-11-12T08:58:20.384Z,97158.59
2018-11-12T09:00:49.869Z,97146.90
2018-11-12T09:03:19.773Z,97141.58
2018-11-12T09:05:49.847Z,97147.23
2018-11-12T09:08:19.842Z,97150.77
2018-11-12T09:10:49.860Z,97156.60
2018-11-12T09:13:19.986Z,97158.41
2018-11-12T09:15:50.145Z,97161.90
2018-11-12T09:18:20.085Z,97168.10
2018-11-12T09:20:50.042Z,97175.84
2018-11-12T09:23:20.111Z,97164.50
2018-11-12T09:25:50.853Z,97167.78
2018-11-12T09:28:20.143Z,97170.41
2018-11-12T09:30:51.525Z,97174.69
2018-11-12T09:33:20.159Z,97173.14
2018-11-12T09:35:50.143Z,97172.13
2018-11-12T09:40:50.206Z,97171.20
2018-11-12T09:43:20.332Z,97164.59
2018-11-12T09:45:50.261Z,97162.73
2018-11-12T09:48:20.370Z,97162.89
2018-11-12T09:50:50.783Z,97159.11
2018-11-12T09:53:20.987Z,97168.08
2018-11-12T09:55:50.420Z,97164.38
2018-11-12T09:58:20.332Z,97162.29
2018-11-12T10:00:50.690Z,97161.92
2018-11-12T10:03:26.801Z,97161.00
2018-11-12T10:05:58.025Z,97169.50
2018-11-12T10:08:27.144Z,97178.03
2018-11-12T10:10:59.195Z,97174.77
2018-11-12T10:13:28.857Z,97176.56
2018-11-12T10:15:59.995Z,97179.21
2018-11-12T10:18:25.930Z,97171.02
2018-11-12T10:20:55.112Z,97167.69
2018-11-12T10:23:24.347Z,97172.87
2018-11-12T10:25:53.904Z,97170.75
2018-11-12T10:28:23.963Z,97168.74
2018-11-12T10:30:53.192Z,97168.05
2018-11-12T10:33:22.513Z,97169.07
2018-11-12T10:35:52.830Z,97176.62
2018-11-12T10:38:23.589Z,97170.21
2018-11-12T10:40:53.840Z,97168.12
2018-11-12T10:43:22.986Z,97161.09
2018-11-12T10:45:52.385Z,97154.80
2018-11-12T10:48:21.684Z,97151.50
2018-11-12T10:50:56.376Z,97152.80
2018-11-12T10:53:20.951Z,97148.28
2018-11-12T10:55:51.097Z,97150.17
2018-11-12T10:58:20.959Z,97159.36
2018-11-12T11:00:56.419Z,97161.94
2018-11-12T11:03:30.914Z,97152.94
2018-11-12T11:06:00.418Z,97149.50
2018-11-12T11:08:29.891Z,97145.59
2018-11-12T11:10:59.119Z,97144.41
2018-11-12T11:13:28.415Z,97139.30
2018-11-12T11:15:57.633Z,97140.91
2018-11-12T11:18:26.823Z,97143.04
2018-11-12T11:20:56.061Z,97141.00
2018-11-12T11:23:25.337Z,97144.53
2018-11-12T11:25:54.672Z,97146.45
2018-11-12T11:28:23.921Z,97148.27
2018-11-12T11:30:53.259Z,97141.19
2018-11-12T11:33:22.601Z,97131.14
2018-11-12T11:35:51.801Z,97131.65
2018-11-12T11:38:22.401Z,97126.69
2018-11-12T11:40:52.065Z,97128.85
2018-11-12T11:43:21.543Z,97134.38
2018-11-12T11:45:52.207Z,97126.91
2018-11-12T11:48:21.560Z,97117.35
2018-11-12T11:50:51.585Z,97110.28
2018-11-12T11:53:21.397Z,97107.90
2018-11-12T11:55:51.555Z,97102.55
2018-11-12T11:58:21.461Z,97108.14
2018-11-12T12:00:51.587Z,97110.73
2018-11-12T12:03:21.536Z,97104.08
2018-11-12T12:05:51.610Z,97107.58
2018-11-12T12:08:21.711Z,97105.14
2018-11-12T12:10:51.649Z,97104.39
2018-11-12T12:13:21.893Z,97101.92
2018-11-12T12:15:51.787Z,97099.47
2018-11-12T12:18:21.862Z,97096.60
2018-11-12T12:20:51.957Z,97094.55
2018-11-12T12:23:22.197Z,97092.98
2018-11-12T12:25:52.050Z,97094.30
2018-11-12T12:28:21.766Z,97085.51
2018-11-12T12:30:51.918Z,97070.77
2018-11-12T12:33:22.090Z,97069.55
2018-11-12T12:35:51.931Z,97073.84
2018-11-12T12:38:22.176Z,97075.61
2018-11-12T12:40:52.203Z,97080.75
2018-11-12T12:43:22.053Z,97078.23
2018-11-12T12:45:52.167Z,97074.91
2018-11-12T12:48:22.466Z,97069.52
2018-11-12T12:50:52.710Z,97072.50
2018-11-12T12:53:22.340Z,97065.77
2018-11-12T12:55:52.464Z,97061.62
2018-11-12T12:58:22.092Z,97055.73
2018-11-12T13:00:52.226Z,97068.51
2018-11-12T13:03:22.108Z,97070.22
2018-11-12T13:05:52.155Z,97074.50
2018-11-12T13:08:22.146Z,97071.97
2018-11-12T13:10:52.138Z,97071.61
2018-11-12T13:13:22.267Z,97069.48
2018-11-12T13:15:52.375Z,97067.03
2018-11-12T13:18:22.478Z,97070.47
2018-11-12T13:20:52.538Z,97069.25
2018-11-12T13:23:22.334Z,97074.77
2018-11-12T13:25:52.445Z,97074.81
2018-11-12T13:28:22.422Z,97073.96
2018-11-12T13:30:53.665Z,97076.55
2018-11-12T13:33:22.862Z,97084.19
2018-11-12T13:35:53.558Z,97089.69
2018-11-12T13:38:22.750Z,97091.41
2018-11-12T13:40:52.603Z,97092.75
2018-11-12T13:43:22.606Z,97084.30
2018-11-12T13:45:52.764Z,97100.84
2018-11-12T13:48:22.640Z,97096.63
2018-11-12T13:50:52.626Z,97098.31
2018-11-12T13:53:22.675Z,97107.21
2018-11-12T13:55:52.792Z,97104.71
2018-11-12T13:58:22.819Z,97108.98
2018-11-12T14:00:52.931Z,97110.27
2018-11-12T14:03:22.974Z,97118.36
2018-11-12T14:05:52.810Z,97121.72
2018-11-12T14:08:23.016Z,97127.66
2018-11-12T14:10:52.981Z,97127.66
2018-11-12T14:13:23.229Z,97127.62
2018-11-12T14:15:52.892Z,97128.02
2018-11-12T14:18:22.926Z,97126.34
2018-11-12T14:20:53.011Z,97128.47
2018-11-12T14:23:23.222Z,97132.70
2018-11-12T14:25:52.917Z,97118.25
2018-11-12T14:28:23.481Z,97129.28
2018-11-12T14:30:53.073Z,97129.28
2018-11-12T14:33:23.312Z,97138.64
2018-11-12T14:35:53.129Z,97138.23
2018-11-12T14:38:23.618Z,97142.05
2018-11-12T14:40:53.375Z,97143.31
2018-11-12T14:43:23.380Z,97144.59
2018-11-12T14:45:53.197Z,97142.87
2018-11-12T14:48:23.326Z,97152.64
2018-11-12T14:50:53.223Z,97151.34
2018-11-12T14:53:23.310Z,97159.80
2018-11-12T14:55:53.448Z,97156.38
2018-11-12T14:58:23.638Z,97163.95
2018-11-12T15:00:53.350Z,97162.61
2018-11-12T15:03:23.439Z,97158.72
2018-11-12T15:05:53.429Z,97158.64
2018-11-12T15:08:23.476Z,97161.97
2018-11-12T15:10:53.413Z,97167.41
2018-11-12T15:13:23.852Z,97166.84
2018-11-12T15:15:53.474Z,97162.54
2018-11-12T15:18:23.528Z,97167.13
2018-11-12T15:20:53.538Z,97172.98
2018-11-12T15:23:23.857Z,97179.29
2018-11-12T15:25:53.594Z,97177.47
2018-11-12T15:28:23.598Z,97177.42
2018-11-12T15:30:53.617Z,97186.64
2018-11-12T15:33:23.636Z,97189.94
2018-11-12T15:35:53.784Z,97193.23
2018-11-12T15:38:23.779Z,97190.22
2018-11-12T15:40:53.771Z,97194.78
2018-11-12T15:43:23.804Z,97194.72
2018-11-12T15:45:55.460Z,97204.77
2018-11-12T15:48:24.696Z,97206.38
2018-11-12T15:50:53.988Z,97206.70
2018-11-12T15:53:23.932Z,97199.84
2018-11-12T15:55:53.891Z,97198.50
2018-11-12T15:58:24.242Z,97203.47
2018-11-12T16:00:54.019Z,97198.33
2018-11-12T16:03:24.091Z,97208.37
2018-11-12T16:05:54.432Z,97204.84
2018-11-12T16:08:24.012Z,97202.23
2018-11-12T16:10:54.112Z,97214.01
2018-11-12T16:13:24.269Z,97218.53
2018-11-12T16:15:54.060Z,97217.99
2018-11-12T16:18:24.129Z,97224.67
2018-11-12T16:20:54.145Z,97222.02
2018-11-12T16:23:24.274Z,97231.16
2018-11-12T16:25:54.184Z,97234.00
2018-11-12T16:28:24.192Z,97239.38
2018-11-12T16:30:54.164Z,97235.92
2018-11-12T16:33:24.262Z,97234.10
2018-11-12T16:35:54.138Z,97234.69
2018-11-12T16:38:25.274Z,97235.98
2018-11-12T16:40:54.634Z,97234.56
2018-11-12T16:43:24.450Z,97238.26
2018-11-12T16:45:54.426Z,97241.05
2018-11-12T16:48:24.355Z,97250.24
2018-11-12T16:50:54.563Z,97252.70
2018-11-12T16:53:24.430Z,97242.36
2018-11-12T16:55:54.521Z,97256.67
2018-11-12T16:58:24.345Z,97258.69
2018-11-12T17:00:54.506Z,97257.37
2018-11-12T17:03:24.478Z,97262.28
2018-11-12T17:05:54.410Z,97275.74
2018-11-12T17:08:24.579Z,97286.17
2018-11-12T17:10:54.624Z,97286.95
2018-11-12T17:13:24.599Z,97284.73
2018-11-12T17:15:54.645Z,97290.53
2018-11-12T17:18:24.637Z,97296.34
2018-11-12T17:20:54.636Z,97300.47
2018-11-12T17:23:24.688Z,97303.77
2018-11-12T17:25:54.722Z,97307.06
2018-11-12T17:28:24.619Z,97313.30
2018-11-12T17:30:54.734Z,97316.13
2018-11-12T17:33:24.707Z,97317.77
2018-11-12T17:35:54.748Z,97323.59
2018-11-12T17:38:25.031Z,97329.44
2018-11-12T17:40:54.774Z,97318.00
2018-11-12T17:43:24.886Z,97328.48
2018-11-12T17:45:54.909Z,97324.16
2018-11-12T17:48:24.945Z,97325.79
2018-11-12T17:50:54.935Z,97327.69
2018-11-12T17:53:25.555Z,97341.58
2018-11-12T17:55:54.921Z,97345.73
2018-11-12T17:58:25.000Z,97349.09
2018-11-12T18:00:55.013Z,97344.77
2018-11-12T18:03:24.985Z,97355.28
2018-11-12T18:05:55.055Z,97362.39
2018-11-12T18:08:25.204Z,97369.08
2018-11-12T18:10:55.308Z,97368.64
2018-11-12T18:13:26.228Z,97368.17
2018-11-12T18:15:55.540Z,97370.63
2018-11-12T18:18:25.214Z,97372.19
2018-11-12T18:20:55.399Z,97392.47
2018-11-12T18:23:25.492Z,97393.19
2018-11-12T18:25:55.349Z,97400.16
2018-11-12T18:28:25.613Z,97398.23
2018-11-12T18:30:55.390Z,97401.45
2018-11-12T18:33:25.339Z,97401.80
2018-11-12T18:35:55.501Z,97406.42
2018-11-12T18:38:25.838Z,97403.79
2018-11-12T18:40:55.806Z,97403.28
2018-11-12T18:43:25.586Z,97393.82
2018-11-12T18:45:55.517Z,97406.05
2018-11-12T18:48:25.521Z,97403.73
2018-11-12T18:50:55.562Z,97406.10
2018-11-12T18:53:25.897Z,97406.06
2018-11-12T18:55:55.658Z,97406.93
2018-11-12T18:58:25.835Z,97406.06
2018-11-12T19:00:55.595Z,97401.02
2018-11-12T19:03:25.783Z,97397.59
2018-11-12T19:05:55.837Z,97411.03
2018-11-12T19:08:25.764Z,97404.37
2018-11-12T19:10:56.384Z,97411.94
2018-11-12T19:13:25.938Z,97408.11
2018-11-12T19:15:55.993Z,97410.13
2018-11-12T19:18:26.184Z,97418.52
2018-11-12T19:20:56.128Z,97418.52
2018-11-12T19:23:26.125Z,97414.55
2018-11-12T19:25:56.193Z,97416.87
2018-11-12T19:28:26.358Z,97413.91
2018-11-12T19:30:56.311Z,97414.63
2018-11-12T19:33:26.261Z,97425.54
2018-11-12T19:35:56.147Z,97418.41
2018-11-12T19:38:26.473Z,97420.58
2018-11-12T19:40:57.208Z,97421.40
2018-11-12T19:43:27.231Z,97419.31
2018-11-12T19:45:57.012Z,97432.41
2018-11-12T19:48:26.829Z,97434.09
2018-11-12T19:50:57.151Z,97431.38
2018-11-12T19:53:27.413Z,97439.77
2018-11-12T19:55:58.143Z,97439.69
2018-11-12T19:58:27.976Z,97440.83
2018-11-12T20:00:57.694Z,97444.09
2018-11-12T20:03:27.516Z,97432.78
2018-11-12T20:05:57.344Z,97432.00
2018-11-12T20:08:28.117Z,97433.73
2018-11-12T20:10:57.903Z,97438.66
2018-11-12T20:13:27.620Z,97441.10
2018-11-12T20:15:57.415Z,97441.10
2018-11-12T20:18:28.157Z,97445.36
2018-11-12T20:20:59.002Z,97447.05
2018-11-12T20:23:28.866Z,97447.20
2018-11-12T20:26:00.922Z,97448.09
2018-11-12T20:28:30.698Z,97449.61
2018-11-12T20:31:00.613Z,97452.83
2018-11-12T20:33:30.358Z,97461.96
2018-11-12T20:36:00.083Z,97461.92
2018-11-12T20:38:30.350Z,97468.92
2018-11-12T20:41:00.468Z,97472.70
2018-11-12T20:43:30.362Z,97465.74
2018-11-12T20:46:01.179Z,97475.04
2018-11-12T20:48:30.966Z,97477.09
2018-11-12T20:51:00.886Z,97474.91
2018-11-12T20:53:31.691Z,97479.22
2018-11-12T20:56:01.564Z,97481.00
2018-11-12T20:58:31.302Z,97475.83
2018-11-12T21:01:02.004Z,97480.03
2018-11-12T21:03:32.327Z,97477.25
2018-11-12T21:06:01.963Z,97481.33
2018-11-12T21:08:31.677Z,97479.16
2018-11-12T21:11:01.216Z,97485.41
2018-11-12T21:13:30.898Z,97481.16
2018-11-12T21:16:00.637Z,97476.13
2018-11-12T21:18:30.802Z,97475.20
2018-11-12T21:21:01.138Z,97470.30
2018-11-12T21:23:31.356Z,97472.91
2018-11-12T21:26:01.371Z,97467.86
2018-11-12T21:28:31.522Z,97464.44
2018-11-12T21:31:01.629Z,97457.22
2018-11-12T21:33:31.941Z,97453.44
2018-11-12T21:36:01.927Z,97452.66
2018-11-12T21:38:31.961Z,97450.92
2018-11-12T21:41:01.935Z,97449.05
2018-11-12T21:43:32.314Z,97455.30
2018-11-12T21:46:02.112Z,97455.64
2018-11-12T21:48:32.252Z,97455.11
2018-11-12T21:51:02.402Z,97451.42
2018-11-12T21:53:32.535Z,97453.13
2018-11-12T21:56:02.671Z,97451.34
2018-11-12T21:58:32.915Z,97457.98
2018-11-12T22:01:02.817Z,97447.03
2018-11-12T22:03:32.904Z,97444.22
2018-11-12T22:06:03.060Z,97444.31
2018-11-12T22:08:33.201Z,97449.42
2018-11-12T22:11:03.041Z,97450.73
2018-11-12T22:13:32.925Z,97456.69
2018-11-12T22:16:02.779Z,97458.73
2018-11-12T22:18:32.800Z,97463.20
2018-11-12T22:21:02.662Z,97461.51
2018-11-12T22:23:32.735Z,97458.07
2018-11-12T22:26:02.772Z,97457.16
2018-11-12T22:28:32.859Z,97467.23
2018-11-12T22:31:03.077Z,97467.33
2018-11-12T22:33:33.149Z,97464.81
2018-11-12T22:36:03.364Z,97469.16
2018-11-12T22:38:33.345Z,97461.59
2018-11-12T22:41:03.398Z,97467.45
2018-11-12T22:43:32.724Z,97468.25
2018-11-12T22:46:02.005Z,97467.33
2018-11-12T22:48:31.356Z,97467.90
2018-11-12T22:51:00.705Z,97466.30
2018-11-12T22:53:29.995Z,97464.03
2018-11-12T22:56:00.684Z,97461.95
2018-11-12T22:58:29.940Z,97454.73
2018-11-12T23:01:03.557Z,97456.13
2018-11-12T23:03:32.858Z,97459.03
2018-11-12T23:06:11.058Z,97463.20
2018-11-12T23:08:41.098Z,97458.30
2018-11-12T23:11:10.370Z,97457.03
2018-11-12T23:13:39.651Z,97457.47
2018-11-12T23:16:08.819Z,97455.64
2018-11-12T23:18:38.095Z,97453.73
2018-11-12T23:21:08.163Z,97454.07
2018-11-12T23:23:37.505Z,97458.77
2018-11-12T23:26:06.738Z,97459.58
2018-11-12T23:28:35.909Z,97465.06
2018-11-12T23:31:05.352Z,97470.67
2018-11-12T23:33:34.766Z,97463.93
2018-11-12T23:36:04.369Z,97471.36
2018-11-12T23:38:33.941Z,97477.71
2018-11-12T23:41:03.547Z,97468.25
2018-11-12T23:43:33.119Z,97469.16
2018-11-12T23:46:02.599Z,97466.64
2018-11-12T23:48:32.169Z,97468.25
2018-11-12T23:51:01.773Z,97465.63
2018-11-12T23:53:31.299Z,97467.93
2018-11-12T23:56:00.819Z,97470.45
2018-11-12T23:58:30.315Z,97463.93
